createdAt,value
2023-05-21T00:03:30.876Z,77.32
2023-05-21T00:08:34.176Z,77.76
2023-05-21T00:13:35.825Z,77.17
2023-05-21T00:18:39.512Z,78.10
2023-05-21T00:23:42.846Z,78.00
2023-05-21T00:28:44.326Z,78.21
2023-05-21T00:33:45.779Z,78.89
2023-05-21T00:38:47.285Z,79.11
2023-05-21T00:43:48.796Z,79.12
2023-05-21T00:48:51.008Z,79.41
2023-05-21T00:53:53.143Z,80.05
2023-05-21T00:58:57.379Z,81.98
2023-05-21T01:04:01.819Z,82.03
2023-05-21T01:09:06.345Z,81.71
2023-05-21T01:14:10.253Z,81.95
2023-05-21T01:19:15.811Z,82.40
2023-05-21T01:24:17.427Z,83.14
2023-05-21T01:29:19.497Z,83.13
2023-05-21T01:34:27.140Z,83.33
2023-05-21T01:39:37.729Z,83.22
2023-05-21T01:44:40.152Z,84.00
2023-05-21T01:49:42.291Z,83.46
2023-05-21T01:54:43.815Z,83.58
2023-05-21T01:59:45.632Z,84.35
2023-05-21T02:04:47.899Z,84.24
2023-05-21T02:09:49.461Z,85.00
2023-05-21T02:14:50.984Z,85.59
2023-05-21T02:19:52.585Z,86.98
2023-05-21T02:24:54.828Z,87.35
2023-05-21T02:29:56.601Z,87.59
2023-05-21T02:34:58.982Z,88.32
2023-05-21T02:40:02.228Z,88.74
2023-05-21T02:45:03.962Z,91.71
2023-05-21T02:50:07.531Z,91.79
2023-05-21T02:55:09.512Z,91.85
2023-05-21T03:00:11.913Z,92.10
2023-05-21T03:05:13.408Z,91.82
2023-05-21T03:10:15.012Z,92.05
2023-05-21T03:15:16.623Z,92.70
2023-05-21T03:20:19.050Z,93.04
2023-05-21T03:25:21.677Z,92.53
2023-05-21T03:30:23.226Z,92.57
2023-05-21T03:35:24.668Z,92.68
2023-05-21T03:40:26.130Z,92.29
2023-05-21T03:45:27.589Z,92.53
2023-05-21T03:50:29.154Z,92.53
2023-05-21T03:55:30.947Z,92.21
2023-05-21T04:00:37.479Z,91.97
2023-05-21T04:05:38.962Z,91.99
2023-05-21T04:10:40.542Z,91.91
2023-05-21T04:15:43.744Z,91.90
2023-05-21T04:20:45.290Z,91.92
2023-05-21T04:25:50.546Z,91.63
2023-05-21T04:30:52.397Z,91.42
2023-05-21T04:35:53.970Z,90.86
2023-05-21T04:40:56.442Z,90.08
2023-05-21T04:45:57.906Z,89.36
2023-05-21T04:50:59.905Z,88.68
2023-05-21T04:56:01.602Z,86.92
2023-05-21T05:01:04.192Z,84.73
2023-05-21T05:06:06.240Z,82.69
2023-05-21T05:11:07.940Z,79.60
2023-05-21T05:16:09.834Z,75.99
2023-05-21T05:21:11.575Z,73.25
2023-05-21T05:26:13.262Z,70.25
2023-05-21T05:31:14.925Z,68.52
2023-05-21T05:36:16.581Z,66.67
2023-05-21T05:41:18.208Z,63.08
2023-05-21T05:46:19.791Z,62.70
2023-05-21T05:51:21.344Z,62.20
2023-05-21T05:56:22.914Z,61.78
2023-05-21T06:01:26.206Z,63.14
2023-05-21T06:06:27.812Z,65.33
2023-05-21T06:11:29.392Z,65.89
2023-05-21T06:16:34.154Z,66.38
2023-05-21T06:21:35.874Z,66.31
2023-05-21T06:26:37.346Z,66.45
2023-05-21T06:31:38.870Z,66.44
2023-05-21T06:36:41.129Z,64.48
2023-05-21T06:41:42.609Z,63.69
2023-05-21T06:46:44.683Z,64.16
2023-05-21T06:51:46.163Z,63.95
2023-05-21T06:56:47.712Z,63.12
2023-05-21T07:01:49.219Z,62.49
2023-05-21T07:06:52.384Z,62.97
2023-05-21T07:11:53.854Z,61.52
2023-05-21T07:16:55.406Z,60.36
2023-05-21T07:21:57.523Z,58.29
2023-05-21T07:26:58.950Z,58.05
2023-05-21T07:32:00.787Z,56.79
2023-05-21T07:37:02.245Z,56.61
2023-05-21T07:42:04.003Z,52.14
2023-05-21T07:47:05.539Z,48.38
2023-05-21T07:52:07.312Z,45.90
2023-05-21T07:57:08.744Z,42.99
2023-05-21T08:02:10.222Z,39.40
2023-05-21T08:07:12.929Z,39.78
2023-05-21T08:12:15.965Z,41.25
2023-05-21T08:17:17.525Z,37.19
2023-05-21T08:22:18.992Z,35.48
2023-05-21T08:27:21.347Z,33.79
2023-05-21T08:32:23.056Z,33.79
2023-05-21T08:37:24.657Z,34.02
2023-05-21T08:42:37.276Z,35.91
2023-05-21T08:47:42.034Z,36.58
2023-05-21T08:52:43.625Z,36.30
2023-05-21T08:57:45.325Z,38.32
2023-05-21T09:02:47.003Z,39.27
2023-05-21T09:08:00.991Z,38.79
2023-05-21T09:13:03.516Z,37.98
2023-05-21T09:18:05.015Z,37.45
2023-05-21T09:23:12.586Z,37.43
2023-05-21T09:28:15.784Z,37.26
2023-05-21T09:33:29.389Z,38.35
2023-05-21T09:38:34.260Z,40.96
2023-05-21T09:43:36.655Z,41.59
2023-05-21T09:48:41.062Z,41.84
2023-05-21T09:53:57.800Z,42.82
2023-05-21T09:59:04.547Z,43.06
2023-05-21T10:04:10.215Z,44.14
2023-05-21T10:09:14.913Z,43.59
2023-05-21T10:14:20.540Z,43.73
2023-05-21T10:19:24.714Z,44.29
2023-05-21T10:24:27.322Z,44.48
2023-05-21T10:29:28.872Z,44.32
2023-05-21T10:34:32.035Z,44.64
2023-05-21T10:39:34.351Z,45.77
2023-05-21T10:44:49.385Z,44.25
2023-05-21T10:50:44.801Z,45.00
2023-05-21T10:55:56.127Z,44.42
2023-05-21T11:00:59.469Z,45.61
2023-05-21T11:06:03.547Z,46.46
2023-05-21T11:11:05.447Z,46.71
2023-05-21T11:16:07.932Z,46.81
2023-05-21T11:21:11.181Z,47.95
2023-05-21T11:26:12.782Z,47.50
2023-05-21T11:31:28.163Z,46.62
2023-05-21T11:36:30.335Z,46.86
2023-05-21T11:41:50.161Z,45.37
2023-05-21T11:46:52.407Z,45.30
2023-05-21T11:51:54.015Z,45.66
2023-05-21T11:56:55.887Z,45.95
2023-05-21T12:01:57.474Z,45.88
2023-05-21T12:06:58.968Z,46.50
2023-05-21T12:12:01.021Z,46.40
2023-05-21T12:17:04.388Z,47.33
2023-05-21T12:22:07.429Z,47.13
2023-05-21T12:27:09.829Z,45.87
2023-05-21T12:32:14.125Z,46.33
2023-05-21T12:37:16.970Z,46.59
2023-05-21T12:42:30.761Z,46.52
2023-05-21T12:47:33.292Z,46.13
2023-05-21T12:52:35.014Z,46.60
2023-05-21T12:57:40.715Z,46.70
2023-05-21T13:02:44.467Z,46.38
2023-05-21T13:07:47.882Z,46.52
2023-05-21T13:12:49.756Z,46.50
2023-05-21T13:17:53.202Z,46.78
2023-05-21T13:22:56.669Z,47.13
2023-05-21T13:28:05.164Z,47.34
2023-05-21T13:33:06.900Z,46.61
2023-05-21T13:38:08.511Z,46.99
2023-05-21T13:43:09.987Z,47.86
2023-05-21T13:48:11.992Z,47.88
2023-05-21T13:53:13.504Z,46.63
2023-05-21T13:58:15.077Z,47.05
2023-05-21T14:03:16.671Z,47.13
2023-05-21T14:08:20.734Z,47.18
2023-05-21T14:13:22.368Z,47.28
2023-05-21T14:18:23.924Z,47.53
2023-05-21T14:23:25.401Z,47.23
2023-05-21T14:28:26.913Z,47.06
2023-05-21T14:33:28.428Z,46.06
2023-05-21T14:38:29.951Z,45.63
2023-05-21T14:43:31.441Z,45.30
2023-05-21T14:48:33.335Z,45.41
2023-05-21T14:53:34.810Z,45.07
2023-05-21T14:58:36.276Z,45.01
2023-05-21T15:03:37.841Z,44.31
2023-05-21T15:08:39.379Z,44.79
2023-05-21T15:13:41.131Z,45.03
2023-05-21T15:18:42.712Z,45.12
2023-05-21T15:23:44.315Z,44.95
2023-05-21T15:28:47.282Z,44.07
2023-05-21T15:33:49.115Z,44.37
2023-05-21T15:38:50.658Z,44.95
2023-05-21T15:43:52.220Z,44.83
2023-05-21T15:48:53.686Z,45.17
2023-05-21T15:53:55.128Z,45.24
2023-05-21T15:58:58.631Z,45.65
2023-05-21T16:04:02.077Z,45.88
2023-05-21T16:09:03.671Z,46.35
2023-05-21T16:14:05.280Z,46.55
2023-05-21T16:19:06.870Z,46.34
2023-05-21T16:24:08.392Z,47.50
2023-05-21T16:29:09.987Z,47.39
2023-05-21T16:34:11.448Z,48.21
2023-05-21T16:39:12.931Z,48.35
2023-05-21T16:44:14.605Z,48.22
2023-05-21T16:49:16.096Z,48.85
2023-05-21T16:54:17.573Z,49.00
2023-05-21T16:59:19.066Z,49.51
2023-05-21T17:04:20.610Z,49.77
2023-05-21T17:09:22.124Z,49.92
2023-05-21T17:14:33.951Z,50.37
2023-05-21T17:19:36.236Z,50.63
2023-05-21T17:24:37.770Z,50.78
2023-05-21T17:29:39.290Z,51.28
2023-05-21T17:34:40.861Z,52.04
2023-05-21T17:39:42.414Z,52.67
2023-05-21T17:44:43.931Z,53.53
2023-05-21T17:49:45.517Z,53.65
2023-05-21T17:54:47.011Z,53.54
2023-05-21T17:59:48.483Z,53.79
2023-05-21T18:04:50.058Z,53.95
2023-05-21T18:09:51.564Z,56.15
2023-05-21T18:14:53.261Z,55.35
2023-05-21T18:19:54.709Z,55.24
2023-05-21T18:24:56.266Z,55.32
2023-05-21T18:29:57.734Z,55.96
2023-05-21T18:34:59.301Z,56.66
2023-05-21T18:40:00.878Z,56.79
2023-05-21T18:45:10.175Z,57.50
2023-05-21T18:50:13.367Z,58.66
2023-05-21T18:55:14.900Z,59.25
2023-05-21T19:00:16.772Z,60.33
2023-05-21T19:05:18.472Z,61.92
2023-05-21T19:10:20.006Z,63.37
2023-05-21T19:15:21.473Z,63.92
2023-05-21T19:20:27.141Z,64.35
2023-05-21T19:25:28.944Z,65.22
2023-05-21T19:30:30.557Z,65.83
2023-05-21T19:35:32.076Z,66.67
2023-05-21T19:40:33.616Z,66.84
2023-05-21T19:45:35.106Z,67.07
2023-05-21T19:50:36.816Z,66.97
2023-05-21T19:55:38.384Z,67.23
2023-05-21T20:00:40.232Z,67.65
2023-05-21T20:05:41.742Z,67.94
2023-05-21T20:10:43.385Z,68.22
2023-05-21T20:15:44.953Z,68.67
2023-05-21T20:20:46.800Z,69.33
2023-05-21T20:25:48.382Z,70.35
2023-05-21T20:30:57.646Z,70.33
2023-05-21T20:35:59.847Z,70.52
2023-05-21T20:41:01.467Z,70.98
2023-05-21T20:46:05.945Z,71.38
2023-05-21T20:51:08.113Z,71.60
2023-05-21T20:56:11.713Z,71.74
2023-05-21T21:01:14.541Z,73.19
2023-05-21T21:06:20.116Z,74.30
2023-05-21T21:11:21.902Z,74.37
2023-05-21T21:16:23.451Z,75.05
2023-05-21T21:21:25.081Z,76.18
2023-05-21T21:26:27.074Z,76.67
2023-05-21T21:31:29.678Z,76.96
2023-05-21T21:36:31.409Z,77.47
2023-05-21T21:41:32.998Z,77.44
2023-05-21T21:46:34.502Z,78.64
2023-05-21T21:51:36.973Z,79.56
2023-05-21T21:56:38.521Z,79.25
2023-05-21T22:01:40.169Z,79.67
2023-05-21T22:06:41.762Z,80.07
2023-05-21T22:11:43.328Z,80.33
2023-05-21T22:16:45.221Z,80.69
2023-05-21T22:21:47.341Z,81.26
2023-05-21T22:26:48.816Z,82.60
2023-05-21T22:31:50.506Z,83.75
2023-05-21T22:36:51.985Z,83.44
2023-05-21T22:41:53.579Z,83.21
2023-05-21T22:46:56.534Z,83.23
2023-05-21T22:52:05.055Z,85.19
2023-05-21T22:57:06.557Z,85.72
2023-05-21T23:02:08.159Z,85.49
2023-05-21T23:07:09.879Z,85.84
2023-05-21T23:12:12.098Z,85.77
2023-05-21T23:17:14.206Z,86.11
2023-05-21T23:22:16.004Z,86.01
2023-05-21T23:27:17.571Z,86.62
2023-05-21T23:32:20.124Z,86.59
2023-05-21T23:37:21.936Z,86.96
2023-05-21T23:42:23.406Z,86.86
2023-05-21T23:47:25.919Z,87.85
2023-05-21T23:52:27.401Z,88.27
2023-05-21T23:57:28.919Z,88.47
